createdAt,value
2022-12-03T00:00:13.307Z,42.92
2022-12-03T00:02:41.943Z,44.40
2022-12-03T00:05:09.616Z,41.77
2022-12-03T00:07:36.619Z,36.50
2022-12-03T00:10:05.049Z,38.05
2022-12-03T00:12:31.742Z,29.08
2022-12-03T00:14:58.700Z,22.55
2022-12-03T00:17:25.586Z,30.30
2022-12-03T00:19:52.451Z,29.98
2022-12-03T00:22:19.251Z,38.70
2022-12-03T00:24:45.982Z,31.08
2022-12-03T00:27:12.679Z,39.65
2022-12-03T00:29:39.451Z,35.87
2022-12-03T00:32:06.356Z,40.85
2022-12-03T00:34:33.107Z,41.30
2022-12-03T00:36:59.868Z,37.05
2022-12-03T00:39:26.593Z,30.05
2022-12-03T00:41:53.311Z,40.87
2022-12-03T00:44:20.096Z,38.45
2022-12-03T00:46:46.853Z,24.83
2022-12-03T00:49:13.708Z,30.88
2022-12-03T00:51:40.570Z,35.35
2022-12-03T00:54:07.276Z,39.03
2022-12-03T00:56:34.142Z,35.97
2022-12-03T00:59:01.051Z,35.03
2022-12-03T01:01:27.834Z,37.05
2022-12-03T01:03:54.591Z,39.63
2022-12-03T01:06:21.385Z,28.00
2022-12-03T01:08:48.113Z,27.10
2022-12-03T01:11:33.314Z,23.50
2022-12-03T01:14:00.039Z,24.65
2022-12-03T01:16:26.771Z,40.85
2022-12-03T01:18:53.570Z,33.57
2022-12-03T01:21:20.453Z,36.88
2022-12-03T01:23:47.290Z,28.15
2022-12-03T01:26:14.050Z,24.08
2022-12-03T01:28:42.110Z,34.42
2022-12-03T01:31:27.603Z,32.10
2022-12-03T01:33:54.762Z,31.42
2022-12-03T01:36:21.898Z,30.33
2022-12-03T01:38:51.683Z,27.38
2022-12-03T01:41:19.403Z,29.67
2022-12-03T01:43:46.771Z,23.73
2022-12-03T01:46:20.116Z,27.88
2022-12-03T01:48:49.250Z,27.33
2022-12-03T01:51:16.497Z,29.25
2022-12-03T01:53:44.509Z,24.27
2022-12-03T01:56:15.834Z,21.33
2022-12-03T01:58:43.559Z,19.42
2022-12-03T02:01:16.640Z,30.10
2022-12-03T02:03:44.546Z,20.27
2022-12-03T02:06:17.399Z,28.08
2022-12-03T02:08:44.822Z,23.90
2022-12-03T02:11:33.305Z,16.20
2022-12-03T02:14:03.998Z,30.80
2022-12-03T02:16:31.074Z,16.10
2022-12-03T02:18:58.553Z,24.27
2022-12-03T02:21:50.720Z,29.07
2022-12-03T02:24:33.462Z,16.98
2022-12-03T02:27:00.211Z,27.85
2022-12-03T02:29:26.998Z,24.38
2022-12-03T02:31:53.878Z,22.45
2022-12-03T02:34:53.385Z,25.23
2022-12-03T02:37:25.016Z,29.13
2022-12-03T02:39:55.112Z,25.60
2022-12-03T02:42:37.864Z,27.40
2022-12-03T02:45:25.667Z,20.48
2022-12-03T02:47:59.113Z,28.17
2022-12-03T02:50:30.301Z,28.88
2022-12-03T02:53:01.067Z,27.88
2022-12-03T02:55:34.943Z,31.48
2022-12-03T02:58:04.936Z,28.55
2022-12-03T03:00:31.986Z,28.30
2022-12-03T03:02:59.200Z,32.67
2022-12-03T03:05:25.991Z,31.75
2022-12-03T03:07:52.959Z,27.65
2022-12-03T03:10:23.236Z,28.65
2022-12-03T03:12:52.666Z,29.17
2022-12-03T03:15:20.235Z,29.20
2022-12-03T03:17:47.025Z,31.45
2022-12-03T03:20:14.979Z,28.13
2022-12-03T03:22:43.272Z,27.70
2022-12-03T03:25:15.346Z,31.33
2022-12-03T03:27:42.495Z,26.58
2022-12-03T03:30:10.255Z,31.13
2022-12-03T03:32:38.272Z,30.60
2022-12-03T03:35:06.315Z,32.42
2022-12-03T03:37:33.086Z,30.27
2022-12-03T03:39:59.980Z,33.15
2022-12-03T03:42:26.773Z,30.30
2022-12-03T03:44:53.922Z,33.72
2022-12-03T03:47:20.928Z,23.27
2022-12-03T03:49:50.609Z,27.33
2022-12-03T03:52:19.511Z,35.75
2022-12-03T03:54:47.263Z,33.42
2022-12-03T03:57:14.399Z,32.83
2022-12-03T03:59:41.396Z,23.58
2022-12-03T04:02:17.790Z,30.80
2022-12-03T04:04:44.682Z,24.92
2022-12-03T04:07:11.431Z,30.58
2022-12-03T04:09:38.131Z,24.08
2022-12-03T04:12:23.847Z,26.60
2022-12-03T04:14:50.736Z,36.90
2022-12-03T04:17:17.491Z,34.63
2022-12-03T04:19:44.277Z,33.15
2022-12-03T04:22:29.430Z,29.85
2022-12-03T04:25:16.207Z,30.65
2022-12-03T04:28:01.674Z,32.77
2022-12-03T04:30:28.551Z,29.83
2022-12-03T04:33:13.708Z,35.20
2022-12-03T04:35:43.379Z,35.35
2022-12-03T04:38:11.736Z,37.97
2022-12-03T04:40:57.676Z,34.37
2022-12-03T04:43:25.060Z,36.17
2022-12-03T04:45:51.798Z,32.80
2022-12-03T04:48:18.601Z,42.65
2022-12-03T04:50:45.467Z,22.90
2022-12-03T04:53:12.222Z,29.60
2022-12-03T04:55:38.941Z,18.05
2022-12-03T04:58:06.293Z,30.38
2022-12-03T05:00:33.078Z,33.90
2022-12-03T05:02:59.849Z,29.77
2022-12-03T05:05:26.722Z,33.13
2022-12-03T05:07:53.442Z,32.60
2022-12-03T05:10:20.232Z,15.85
2022-12-03T05:12:46.949Z,33.13
2022-12-03T05:15:13.784Z,31.92
2022-12-03T05:17:40.520Z,40.17
2022-12-03T05:20:27.829Z,32.78
2022-12-03T05:22:54.690Z,32.65
2022-12-03T05:25:21.472Z,33.88
2022-12-03T05:27:48.170Z,34.60
2022-12-03T05:30:15.167Z,35.93
2022-12-03T05:32:41.834Z,35.15
2022-12-03T05:35:09.994Z,32.25
2022-12-03T05:37:36.774Z,33.63
2022-12-03T05:40:04.237Z,32.70
2022-12-03T05:42:49.343Z,40.73
2022-12-03T05:45:16.138Z,32.95
2022-12-03T05:47:42.875Z,30.27
2022-12-03T05:50:10.061Z,37.42
2022-12-03T05:52:36.791Z,33.90
2022-12-03T05:55:03.995Z,36.53
2022-12-03T05:57:30.753Z,35.05
2022-12-03T05:59:57.487Z,31.05
2022-12-03T06:02:24.432Z,34.28
2022-12-03T06:04:51.495Z,28.85
2022-12-03T06:07:18.577Z,35.80
2022-12-03T06:09:45.321Z,29.75
2022-12-03T06:12:12.023Z,29.42
2022-12-03T06:14:38.751Z,33.80
2022-12-03T06:17:05.500Z,32.35
2022-12-03T06:19:33.163Z,29.43
2022-12-03T06:22:00.021Z,32.28
2022-12-03T06:24:26.735Z,34.33
2022-12-03T06:26:53.401Z,30.98
2022-12-03T06:29:20.187Z,33.30
2022-12-03T06:31:47.005Z,32.13
2022-12-03T06:34:13.836Z,36.25
2022-12-03T06:36:40.543Z,37.25
2022-12-03T06:39:07.289Z,34.30
2022-12-03T06:41:34.152Z,34.03
2022-12-03T06:44:00.848Z,35.63
2022-12-03T06:46:27.851Z,35.70
2022-12-03T06:48:54.667Z,30.00
2022-12-03T06:51:21.441Z,33.63
2022-12-03T06:53:48.140Z,32.85
2022-12-03T06:56:17.873Z,31.20
2022-12-03T06:58:48.371Z,32.80
2022-12-03T07:01:15.210Z,31.27
2022-12-03T07:03:41.951Z,34.83
2022-12-03T07:06:08.894Z,36.55
2022-12-03T07:08:35.710Z,33.87
2022-12-03T07:11:02.517Z,36.13
2022-12-03T07:13:29.235Z,29.95
2022-12-03T07:15:56.012Z,29.15
2022-12-03T07:18:22.841Z,30.35
2022-12-03T07:20:49.530Z,29.30
2022-12-03T07:23:16.294Z,29.08
2022-12-03T07:25:43.055Z,31.50
2022-12-03T07:28:09.742Z,31.00
2022-12-03T07:30:36.532Z,31.70
2022-12-03T07:33:03.270Z,30.90
2022-12-03T07:35:29.993Z,31.40
2022-12-03T07:37:56.685Z,29.90
2022-12-03T07:40:23.467Z,30.38
2022-12-03T07:42:50.188Z,31.48
2022-12-03T07:45:16.884Z,32.93
2022-12-03T07:47:43.590Z,32.70
2022-12-03T07:50:10.780Z,31.45
2022-12-03T07:52:37.601Z,27.13
2022-12-03T07:55:19.466Z,30.25
2022-12-03T07:57:46.203Z,30.97
2022-12-03T08:00:14.446Z,31.50
2022-12-03T08:02:41.425Z,39.17
2022-12-03T08:05:08.475Z,33.17
2022-12-03T08:07:35.447Z,30.65
2022-12-03T08:10:02.283Z,32.50
2022-12-03T08:12:42.204Z,28.60
2022-12-03T08:15:13.627Z,27.27
2022-12-03T08:17:42.274Z,23.15
2022-12-03T08:20:14.290Z,21.73
2022-12-03T08:22:45.839Z,29.03
2022-12-03T08:25:15.482Z,29.52
2022-12-03T08:27:42.236Z,29.73
2022-12-03T08:30:13.130Z,27.67
2022-12-03T08:32:40.546Z,25.65
2022-12-03T08:35:30.517Z,14.97
2022-12-03T08:38:11.371Z,28.92
2022-12-03T08:40:43.173Z,33.60
2022-12-03T08:43:21.271Z,37.88
2022-12-03T08:45:49.936Z,33.88
2022-12-03T08:48:34.473Z,30.17
2022-12-03T08:51:03.579Z,24.63
2022-12-03T08:53:46.543Z,69.07
2022-12-03T08:56:24.234Z,24.10
2022-12-03T08:58:57.169Z,20.98
2022-12-03T09:01:32.528Z,31.00
2022-12-03T09:04:16.495Z,36.15
2022-12-03T09:06:43.303Z,29.23
2022-12-03T09:09:10.350Z,22.92
2022-12-03T09:11:37.530Z,31.15
2022-12-03T09:14:05.062Z,26.85
2022-12-03T09:16:32.042Z,27.48
2022-12-03T09:18:58.971Z,18.42
2022-12-03T09:21:25.667Z,25.27
2022-12-03T09:23:52.512Z,22.33
2022-12-03T09:26:19.286Z,24.33
2022-12-03T09:28:48.231Z,25.75
2022-12-03T09:31:16.064Z,25.25
2022-12-03T09:33:43.288Z,26.65
2022-12-03T09:36:10.089Z,27.88
2022-12-03T09:38:37.032Z,26.37
2022-12-03T09:41:03.900Z,25.42
2022-12-03T09:44:02.904Z,30.95
2022-12-03T09:46:22.668Z,26.27
2022-12-03T09:48:49.960Z,21.77
2022-12-03T09:51:17.387Z,24.17
2022-12-03T09:53:44.235Z,26.05
2022-12-03T09:56:18.093Z,23.77
2022-12-03T09:58:45.180Z,25.08
2022-12-03T10:01:15.124Z,19.30
2022-12-03T10:03:52.110Z,23.88
2022-12-03T10:06:22.260Z,25.83
2022-12-03T10:08:53.513Z,24.98
2022-12-03T10:11:22.541Z,17.30
2022-12-03T10:13:52.630Z,24.67
2022-12-03T10:16:20.951Z,27.10
2022-12-03T10:18:56.889Z,28.33
2022-12-03T10:21:37.047Z,19.92
2022-12-03T10:24:29.203Z,22.23
2022-12-03T10:27:01.763Z,24.75
2022-12-03T10:29:34.018Z,10.63
2022-12-03T10:32:09.413Z,18.45
2022-12-03T10:34:38.719Z,17.38
2022-12-03T10:37:18.461Z,26.73
2022-12-03T10:40:09.201Z,19.27
2022-12-03T10:42:41.385Z,23.63
2022-12-03T10:45:12.559Z,26.60
2022-12-03T10:47:39.517Z,17.98
2022-12-03T10:50:16.159Z,20.85
2022-12-03T10:52:43.627Z,25.63
2022-12-03T10:55:14.459Z,26.67
2022-12-03T10:57:45.700Z,25.75
2022-12-03T11:00:18.338Z,28.73
2022-12-03T11:02:48.340Z,21.50
2022-12-03T11:05:22.938Z,24.40
2022-12-03T11:07:50.290Z,25.10
2022-12-03T11:10:19.015Z,25.85
2022-12-03T11:13:29.225Z,18.15
2022-12-03T11:15:56.805Z,24.15
2022-12-03T11:18:36.057Z,23.77
2022-12-03T11:21:07.072Z,16.67
2022-12-03T11:23:45.684Z,22.90
2022-12-03T11:26:19.973Z,21.35
2022-12-03T11:28:46.942Z,19.63
2022-12-03T11:31:43.483Z,19.55
2022-12-03T11:34:22.485Z,13.83
2022-12-03T11:37:11.035Z,17.25
2022-12-03T11:39:50.539Z,22.38
2022-12-03T11:42:26.224Z,15.90
2022-12-03T11:45:05.274Z,16.67
2022-12-03T11:47:44.386Z,19.27
2022-12-03T11:50:22.692Z,24.70
2022-12-03T11:52:54.215Z,22.23
2022-12-03T11:55:34.729Z,17.63
2022-12-03T11:58:04.622Z,20.67
2022-12-03T12:00:31.649Z,20.60
2022-12-03T12:02:59.165Z,20.13
2022-12-03T12:05:33.720Z,21.35
2022-12-03T12:08:02.247Z,18.33
2022-12-03T12:10:49.052Z,22.10
2022-12-03T12:13:31.015Z,18.83
2022-12-03T12:16:06.206Z,19.23
2022-12-03T12:18:40.236Z,22.20
2022-12-03T12:21:47.651Z,21.83
2022-12-03T12:24:32.947Z,23.30
2022-12-03T12:27:02.882Z,18.60
2022-12-03T12:29:29.651Z,25.35
2022-12-03T12:32:15.242Z,12.40
2022-12-03T12:34:45.196Z,21.83
2022-12-03T12:37:32.712Z,20.58
2022-12-03T12:40:01.735Z,22.63
2022-12-03T12:42:36.813Z,19.15
2022-12-03T12:45:14.790Z,25.08
2022-12-03T12:48:03.331Z,21.63
2022-12-03T12:50:31.000Z,21.90
2022-12-03T12:53:02.945Z,20.55
2022-12-03T12:55:29.734Z,13.30
2022-12-03T12:58:02.443Z,21.50
2022-12-03T13:00:29.249Z,20.95
2022-12-03T13:03:01.776Z,23.85
2022-12-03T13:05:40.531Z,24.42
2022-12-03T13:08:18.990Z,22.05
2022-12-03T13:10:46.102Z,26.77
2022-12-03T13:13:14.906Z,21.80
2022-12-03T13:15:50.683Z,25.20
2022-12-03T13:18:22.346Z,23.67
2022-12-03T13:20:49.209Z,24.25
2022-12-03T13:23:35.368Z,23.08
2022-12-03T13:29:06.247Z,26.73
2022-12-03T13:31:40.596Z,24.42
2022-12-03T13:34:18.861Z,27.90
2022-12-03T13:36:50.535Z,27.52
2022-12-03T13:39:35.135Z,25.45
2022-12-03T13:42:26.594Z,19.90
2022-12-03T13:44:53.815Z,28.63
2022-12-03T13:47:22.383Z,28.52
2022-12-03T13:50:03.676Z,26.20
2022-12-03T13:52:32.880Z,27.95
2022-12-03T13:55:03.428Z,26.02
2022-12-03T13:57:30.237Z,32.63
2022-12-03T13:59:57.172Z,29.85
2022-12-03T14:02:24.339Z,26.48
2022-12-03T14:04:56.815Z,27.42
2022-12-03T14:07:26.756Z,28.00
2022-12-03T14:09:53.822Z,26.52
2022-12-03T14:12:26.876Z,25.65
2022-12-03T14:14:54.092Z,26.63
2022-12-03T14:17:20.979Z,29.05
2022-12-03T14:19:47.750Z,25.15
2022-12-03T14:22:14.518Z,26.90
2022-12-03T14:24:41.763Z,27.42
2022-12-03T14:27:08.578Z,29.33
2022-12-03T14:29:35.465Z,27.23
2022-12-03T14:32:02.481Z,30.20
2022-12-03T14:34:29.298Z,31.05
2022-12-03T14:36:56.063Z,27.58
2022-12-03T14:39:22.799Z,29.17
2022-12-03T14:42:09.162Z,32.58
2022-12-03T14:44:35.905Z,28.40
2022-12-03T14:47:02.621Z,25.13
2022-12-03T14:49:29.591Z,24.65
2022-12-03T14:51:56.402Z,22.75
2022-12-03T14:54:23.258Z,27.42
2022-12-03T14:56:50.238Z,29.85
2022-12-03T14:59:16.991Z,29.75
2022-12-03T15:01:43.884Z,27.73
2022-12-03T15:04:10.619Z,31.90
2022-12-03T15:06:37.431Z,29.33
2022-12-03T15:09:04.664Z,31.48
2022-12-03T15:11:32.320Z,31.75
2022-12-03T15:13:59.271Z,31.88
2022-12-03T15:16:26.135Z,31.13
2022-12-03T15:18:52.935Z,38.05
2022-12-03T15:21:19.867Z,30.52
2022-12-03T15:23:46.655Z,29.10
2022-12-03T15:26:13.362Z,31.88
2022-12-03T15:28:44.130Z,28.90
2022-12-03T15:31:13.638Z,29.70
2022-12-03T15:33:40.416Z,29.83
2022-12-03T15:36:07.534Z,29.00
2022-12-03T15:38:34.390Z,29.33
2022-12-03T15:41:21.032Z,30.45
2022-12-03T15:43:52.657Z,35.90
2022-12-03T15:46:21.605Z,34.35
2022-12-03T15:48:48.803Z,37.13
2022-12-03T15:51:15.558Z,32.55
2022-12-03T15:53:42.786Z,33.13
2022-12-03T15:56:11.824Z,34.25
2022-12-03T15:58:39.755Z,29.70
2022-12-03T16:01:07.904Z,32.80
2022-12-03T16:03:35.155Z,54.22
2022-12-03T16:06:01.948Z,37.30
2022-12-03T16:08:28.743Z,36.08
2022-12-03T16:10:55.437Z,27.63
2022-12-03T16:13:22.283Z,27.77
2022-12-03T16:15:49.289Z,38.75
2022-12-03T16:18:16.056Z,56.13
2022-12-03T16:20:42.819Z,77.03
2022-12-03T16:23:09.595Z,48.72
2022-12-03T16:25:36.454Z,38.47
2022-12-03T16:28:03.550Z,30.75
2022-12-03T16:30:30.354Z,32.20
2022-12-03T16:32:57.171Z,35.78
2022-12-03T16:35:24.029Z,35.17
2022-12-03T16:37:50.789Z,32.75
2022-12-03T16:40:17.632Z,27.98
2022-12-03T16:42:44.356Z,29.38
2022-12-03T16:45:11.145Z,29.00
2022-12-03T16:47:37.830Z,26.42
2022-12-03T16:50:08.003Z,27.15
2022-12-03T16:52:35.930Z,28.60
2022-12-03T16:55:02.742Z,27.13
2022-12-03T16:57:33.698Z,26.85
2022-12-03T17:00:01.154Z,31.25
2022-12-03T17:02:28.084Z,34.88
2022-12-03T17:04:55.489Z,30.40
2022-12-03T17:07:22.380Z,27.60
2022-12-03T17:09:49.467Z,27.42
2022-12-03T17:12:16.607Z,27.52
2022-12-03T17:14:43.546Z,26.13
2022-12-03T17:17:10.277Z,40.15
2022-12-03T17:19:37.056Z,46.30
2022-12-03T17:22:04.323Z,41.67
2022-12-03T17:24:31.440Z,34.40
2022-12-03T17:26:58.672Z,40.92
2022-12-03T17:29:26.255Z,39.30
2022-12-03T17:31:53.300Z,43.00
2022-12-03T17:34:20.328Z,43.72
2022-12-03T17:36:47.394Z,42.25
2022-12-03T17:39:14.129Z,42.95
2022-12-03T17:41:41.155Z,44.40
2022-12-03T17:44:11.358Z,43.58
2022-12-03T17:46:39.796Z,42.85
2022-12-03T17:49:06.623Z,41.72
2022-12-03T17:51:33.340Z,43.08
2022-12-03T17:54:00.604Z,43.00
2022-12-03T17:56:27.273Z,46.47
2022-12-03T17:58:54.130Z,43.00
2022-12-03T18:01:20.897Z,43.38
2022-12-03T18:03:47.775Z,46.22
2022-12-03T18:06:14.711Z,39.90
2022-12-03T18:08:41.468Z,47.08
2022-12-03T18:11:08.186Z,42.75
2022-12-03T18:13:35.248Z,46.85
2022-12-03T18:16:02.196Z,45.88
2022-12-03T18:18:29.047Z,37.10
2022-12-03T18:20:56.002Z,43.88
2022-12-03T18:23:22.846Z,42.17
2022-12-03T18:25:49.571Z,49.42
2022-12-03T18:28:16.331Z,42.88
2022-12-03T18:30:47.526Z,38.13
2022-12-03T18:33:17.612Z,42.38
2022-12-03T18:35:44.800Z,38.10
2022-12-03T18:38:13.973Z,40.00
2022-12-03T18:40:42.789Z,39.90
2022-12-03T18:43:13.900Z,37.58
2022-12-03T18:45:41.166Z,39.50
2022-12-03T18:48:16.218Z,40.95
2022-12-03T18:50:43.472Z,39.00
2022-12-03T18:53:15.653Z,40.73
2022-12-03T18:55:44.380Z,34.67
2022-12-03T18:58:11.595Z,36.58
2022-12-03T19:00:39.520Z,37.80
2022-12-03T19:03:06.984Z,40.97
2022-12-03T19:05:35.138Z,37.80
2022-12-03T19:08:02.931Z,37.33
2022-12-03T19:10:29.810Z,40.15
2022-12-03T19:12:57.084Z,39.33
2022-12-03T19:15:24.213Z,38.75
2022-12-03T19:17:51.459Z,31.90
2022-12-03T19:20:18.333Z,36.50
2022-12-03T19:22:45.142Z,37.65
2022-12-03T19:25:12.123Z,37.00
2022-12-03T19:27:38.899Z,36.70
2022-12-03T19:30:06.363Z,33.73
2022-12-03T19:32:34.586Z,32.40
2022-12-03T19:35:05.170Z,39.95
2022-12-03T19:37:35.099Z,32.60
2022-12-03T19:40:01.836Z,34.97
2022-12-03T19:42:28.773Z,37.97
2022-12-03T19:44:55.525Z,33.33
2022-12-03T19:47:24.629Z,38.45
2022-12-03T19:49:53.792Z,31.05
2022-12-03T19:52:20.850Z,34.90
2022-12-03T19:54:47.774Z,29.83
2022-12-03T19:57:25.478Z,29.77
2022-12-03T19:59:53.418Z,27.85
2022-12-03T20:02:20.550Z,25.88
2022-12-03T20:04:47.362Z,33.55
2022-12-03T20:07:14.171Z,31.87
2022-12-03T20:09:40.956Z,34.47
2022-12-03T20:12:07.751Z,31.45
2022-12-03T20:14:34.535Z,30.13
2022-12-03T20:17:01.332Z,30.48
2022-12-03T20:19:28.158Z,30.87
2022-12-03T20:22:00.747Z,40.17
2022-12-03T20:24:29.239Z,31.45
2022-12-03T20:26:55.991Z,30.83
2022-12-03T20:29:22.734Z,31.25
2022-12-03T20:31:49.603Z,30.20
2022-12-03T20:34:16.433Z,33.60
2022-12-03T20:36:44.230Z,35.70
2022-12-03T20:39:11.079Z,36.00
2022-12-03T20:41:38.279Z,34.47
2022-12-03T20:44:07.440Z,38.27
2022-12-03T20:46:34.678Z,27.92
2022-12-03T20:49:01.552Z,37.05
2022-12-03T20:51:30.225Z,33.33
2022-12-03T20:53:59.070Z,24.23
2022-12-03T20:56:31.637Z,29.53
2022-12-03T20:59:07.091Z,16.42
2022-12-03T21:01:36.126Z,26.85
2022-12-03T21:04:04.769Z,28.85
2022-12-03T21:06:34.098Z,29.90
2022-12-03T21:09:01.146Z,29.73
2022-12-03T21:11:29.996Z,28.70
2022-12-03T21:13:57.939Z,29.55
2022-12-03T21:16:59.026Z,26.90
2022-12-03T21:19:17.803Z,25.55
2022-12-03T21:21:44.517Z,25.40
2022-12-03T21:24:12.506Z,26.30
2022-12-03T21:26:39.533Z,25.40
2022-12-03T21:29:06.658Z,19.55
2022-12-03T21:31:35.387Z,17.02
2022-12-03T21:34:02.866Z,14.43
2022-12-03T21:36:29.754Z,20.98
2022-12-03T21:38:56.511Z,20.02
2022-12-03T21:41:23.283Z,28.73
2022-12-03T21:43:50.842Z,30.88
2022-12-03T21:47:12.205Z,32.22
2022-12-03T21:49:04.300Z,30.90
2022-12-03T21:51:31.216Z,32.60
2022-12-03T21:53:57.903Z,32.05
2022-12-03T21:56:24.760Z,30.75
2022-12-03T21:58:51.551Z,32.50
2022-12-03T22:01:21.046Z,28.33
2022-12-03T22:03:48.120Z,32.25
2022-12-03T22:06:15.618Z,34.90
2022-12-03T22:08:43.018Z,34.50
2022-12-03T22:11:19.429Z,31.70
2022-12-03T22:13:46.499Z,26.48
2022-12-03T22:16:16.036Z,29.08
2022-12-03T22:18:43.213Z,24.58
2022-12-03T22:21:13.121Z,26.88
2022-12-03T22:23:41.015Z,25.80
2022-12-03T22:26:10.770Z,22.30
2022-12-03T22:28:37.654Z,25.50
2022-12-03T22:31:08.442Z,27.10
2022-12-03T22:33:36.402Z,26.40
2022-12-03T22:36:06.234Z,26.52
2022-12-03T22:38:33.318Z,28.38
2022-12-03T22:41:04.227Z,25.83
2022-12-03T22:43:31.031Z,26.10
2022-12-03T22:45:57.834Z,28.08
2022-12-03T22:48:25.005Z,26.23
2022-12-03T22:50:52.849Z,23.83
2022-12-03T22:53:20.151Z,26.95
2022-12-03T22:55:55.542Z,19.00
2022-12-03T22:58:22.444Z,14.00
2022-12-03T23:00:49.881Z,25.02
2022-12-03T23:03:16.812Z,18.20
2022-12-03T23:05:43.566Z,22.48
2022-12-03T23:08:21.611Z,29.17
2022-12-03T23:10:50.722Z,27.98
2022-12-03T23:13:19.006Z,30.15
2022-12-03T23:15:51.398Z,27.35
2022-12-03T23:18:20.026Z,29.73
2022-12-03T23:20:52.289Z,25.30
2022-12-03T23:23:20.970Z,27.73
2022-12-03T23:26:00.752Z,29.55
2022-12-03T23:28:29.052Z,26.23
2022-12-03T23:30:56.453Z,24.40
2022-12-03T23:33:23.781Z,26.23
2022-12-03T23:35:50.577Z,18.83
2022-12-03T23:38:17.479Z,20.00
2022-12-03T23:40:48.051Z,23.23
2022-12-03T23:43:15.790Z,22.90
2022-12-03T23:45:42.494Z,26.40
2022-12-03T23:48:09.220Z,26.27
2022-12-03T23:50:39.761Z,24.43
2022-12-03T23:53:06.702Z,28.60
2022-12-03T23:55:33.747Z,28.40
2022-12-03T23:58:00.462Z,30.35
